Terminal Aerodrome Forecast
Issued by NWS Grand Forks, ND

Home | Current Version | Previous Version | Graphics & Text | Print | Product List | Glossary On
Versions: 1 2 3 4 5 6 7 8 9 10 11 12 13 14
000
FTUS43 KFGF 282300
TAFGFK
TAF
KGFK 282337Z 2900/2924 18024G32KT P6SM BKN150
     FM290400 18024G32KT P6SM -SHRA BKN050
     FM290900 30022G32KT P6SM -SHRA OVC025
     FM291200 33026G36KT P6SM BKN025
     FM291500 33030G40KT P6SM SCT250=

USA.gov is the U.S. government's official web portal to all federal, state and local government web resources and services.